sensor_id;sensor_type;location;lat;lon;timestamp;temperature;humidity
16523;DHT22;19889;52.546;13.348;2022-10-13T00:00:48;12.70;99.90
16523;DHT22;19889;52.546;13.348;2022-10-13T00:03:16;12.70;99.90
16523;DHT22;19889;52.546;13.348;2022-10-13T00:05:44;12.60;99.90
16523;DHT22;19889;52.546;13.348;2022-10-13T00:08:13;12.60;99.90
16523;DHT22;19889;52.546;13.348;2022-10-13T00:10:44;12.60;99.90
16523;DHT22;19889;52.546;13.348;2022-10-13T00:13:14;12.60;99.90
16523;DHT22;19889;52.546;13.348;2022-10-13T00:15:42;12.60;99.90
16523;DHT22;19889;52.546;13.348;2022-10-13T00:18:10;12.60;99.90
16523;DHT22;19889;52.546;13.348;2022-10-13T00:20:40;12.50;99.90
16523;DHT22;19889;52.546;13.348;2022-10-13T00:23:07;12.50;99.90
16523;DHT22;19889;52.546;13.348;2022-10-13T00:25:34;12.50;99.90
16523;DHT22;19889;52.546;13.348;2022-10-13T00:28:05;12.60;99.90
16523;DHT22;19889;52.546;13.348;2022-10-13T00:30:34;12.40;99.90
16523;DHT22;19889;52.546;13.348;2022-10-13T00:33:01;12.60;99.90
16523;DHT22;19889;52.546;13.348;2022-10-13T00:35:27;12.40;99.90
16523;DHT22;19889;52.546;13.348;2022-10-13T00:37:54;12.40;99.90
16523;DHT22;19889;52.546;13.348;2022-10-13T00:40:21;12.40;99.90
16523;DHT22;19889;52.546;13.348;2022-10-13T00:42:47;12.40;99.90
16523;DHT22;19889;52.546;13.348;2022-10-13T00:45:20;12.40;99.90
16523;DHT22;19889;52.546;13.348;2022-10-13T00:47:52;12.40;99.90
16523;DHT22;19889;52.546;13.348;2022-10-13T00:50:22;12.40;99.90
16523;DHT22;19889;52.546;13.348;2022-10-13T00:52:55;12.30;99.90
16523;DHT22;19889;52.546;13.348;2022-10-13T00:55:26;12.30;99.90
16523;DHT22;19889;52.546;13.348;2022-10-13T00:57:56;12.30;99.90
16523;DHT22;19889;52.546;13.348;2022-10-13T01:00:29;12.30;99.90
16523;DHT22;19889;52.546;13.348;2022-10-13T01:02:58;12.30;99.90
16523;DHT22;19889;52.546;13.348;2022-10-13T01:05:25;12.20;99.90
16523;DHT22;19889;52.546;13.348;2022-10-13T01:07:54;12.40;99.90
16523;DHT22;19889;52.546;13.348;2022-10-13T01:10:28;12.30;99.90
16523;DHT22;19889;52.546;13.348;2022-10-13T01:13:00;12.20;99.90
16523;DHT22;19889;52.546;13.348;2022-10-13T01:15:33;12.20;99.90
16523;DHT22;19889;52.546;13.348;2022-10-13T01:18:08;12.20;99.90
16523;DHT22;19889;52.546;13.348;2022-10-13T01:20:59;12.30;99.90
16523;DHT22;19889;52.546;13.348;2022-10-13T01:23:47;12.10;99.90
16523;DHT22;19889;52.546;13.348;2022-10-13T01:26:41;12.10;99.90
16523;DHT22;19889;52.546;13.348;2022-10-13T01:29:27;12.10;99.90
16523;DHT22;19889;52.546;13.348;2022-10-13T01:32:01;12.10;99.90
16523;DHT22;19889;52.546;13.348;2022-10-13T01:34:34;12.10;99.90
16523;DHT22;19889;52.546;13.348;2022-10-13T01:37:11;12.00;99.90
16523;DHT22;19889;52.546;13.348;2022-10-13T01:39:43;12.00;99.90
16523;DHT22;19889;52.546;13.348;2022-10-13T01:42:15;12.00;99.90
16523;DHT22;19889;52.546;13.348;2022-10-13T01:44:47;12.20;99.90
16523;DHT22;19889;52.546;13.348;2022-10-13T01:47:18;12.00;99.90
16523;DHT22;19889;52.546;13.348;2022-10-13T01:49:46;12.10;99.90
16523;DHT22;19889;52.546;13.348;2022-10-13T01:52:16;12.00;99.90
16523;DHT22;19889;52.546;13.348;2022-10-13T01:54:47;10.80;99.90
16523;DHT22;19889;52.546;13.348;2022-10-13T01:57:29;11.90;99.90
16523;DHT22;19889;52.546;13.348;2022-10-13T01:59:57;11.90;99.90
16523;DHT22;19889;52.546;13.348;2022-10-13T02:02:30;11.90;99.90
16523;DHT22;19889;52.546;13.348;2022-10-13T02:05:10;11.90;99.90
16523;DHT22;19889;52.546;13.348;2022-10-13T02:07:45;11.90;99.90
16523;DHT22;19889;52.546;13.348;2022-10-13T02:10:21;11.80;99.90
16523;DHT22;19889;52.546;13.348;2022-10-13T02:12:51;11.80;99.90
16523;DHT22;19889;52.546;13.348;2022-10-13T02:15:22;11.80;99.90
16523;DHT22;19889;52.546;13.348;2022-10-13T02:17:51;12.10;99.90
16523;DHT22;19889;52.546;13.348;2022-10-13T02:20:19;11.90;99.90
16523;DHT22;19889;52.546;13.348;2022-10-13T02:22:49;11.80;99.90
16523;DHT22;19889;52.546;13.348;2022-10-13T02:25:18;11.80;99.90
16523;DHT22;19889;52.546;13.348;2022-10-13T02:27:45;11.80;99.90
16523;DHT22;19889;52.546;13.348;2022-10-13T02:30:20;11.70;99.90
16523;DHT22;19889;52.546;13.348;2022-10-13T02:32:47;11.90;99.90
16523;DHT22;19889;52.546;13.348;2022-10-13T02:35:15;11.80;99.90
16523;DHT22;19889;52.546;13.348;2022-10-13T02:37:42;12.10;99.90
16523;DHT22;19889;52.546;13.348;2022-10-13T02:40:09;11.90;99.90
16523;DHT22;19889;52.546;13.348;2022-10-13T02:42:36;11.70;99.90
16523;DHT22;19889;52.546;13.348;2022-10-13T02:45:04;11.70;99.90
16523;DHT22;19889;52.546;13.348;2022-10-13T02:47:31;11.80;99.90
16523;DHT22;19889;52.546;13.348;2022-10-13T02:49:59;11.80;99.90
16523;DHT22;19889;52.546;13.348;2022-10-13T02:52:27;11.90;99.90
16523;DHT22;19889;52.546;13.348;2022-10-13T02:54:54;11.70;99.90
16523;DHT22;19889;52.546;13.348;2022-10-13T02:57:21;11.70;99.90
16523;DHT22;19889;52.546;13.348;2022-10-13T02:59:48;11.70;99.90
16523;DHT22;19889;52.546;13.348;2022-10-13T03:02:15;11.60;99.90
16523;DHT22;19889;52.546;13.348;2022-10-13T03:04:42;11.70;99.90
16523;DHT22;19889;52.546;13.348;2022-10-13T03:07:09;11.60;99.90
16523;DHT22;19889;52.546;13.348;2022-10-13T03:09:37;11.70;99.90
16523;DHT22;19889;52.546;13.348;2022-10-13T03:12:04;11.70;99.90
16523;DHT22;19889;52.546;13.348;2022-10-13T03:14:32;11.60;99.90
16523;DHT22;19889;52.546;13.348;2022-10-13T03:16:59;11.60;99.90
16523;DHT22;19889;52.546;13.348;2022-10-13T03:19:26;11.70;99.90
16523;DHT22;19889;52.546;13.348;2022-10-13T03:21:53;11.60;99.90
16523;DHT22;19889;52.546;13.348;2022-10-13T03:24:19;11.60;99.90
16523;DHT22;19889;52.546;13.348;2022-10-13T03:26:48;11.70;99.90
16523;DHT22;19889;52.546;13.348;2022-10-13T03:29:16;11.70;99.90
16523;DHT22;19889;52.546;13.348;2022-10-13T03:31:43;11.60;99.90
16523;DHT22;19889;52.546;13.348;2022-10-13T03:34:11;11.60;99.90
16523;DHT22;19889;52.546;13.348;2022-10-13T03:36:38;11.50;99.90
16523;DHT22;19889;52.546;13.348;2022-10-13T03:39:05;11.60;99.90
16523;DHT22;19889;52.546;13.348;2022-10-13T03:41:32;11.60;99.90
16523;DHT22;19889;52.546;13.348;2022-10-13T03:44:00;11.50;99.90
16523;DHT22;19889;52.546;13.348;2022-10-13T03:46:29;11.60;99.90
16523;DHT22;19889;52.546;13.348;2022-10-13T03:48:57;11.50;99.90
16523;DHT22;19889;52.546;13.348;2022-10-13T03:51:24;11.50;99.90
16523;DHT22;19889;52.546;13.348;2022-10-13T03:53:51;11.40;99.90
16523;DHT22;19889;52.546;13.348;2022-10-13T03:56:21;11.60;99.90
16523;DHT22;19889;52.546;13.348;2022-10-13T03:58:52;11.70;99.90
16523;DHT22;19889;52.546;13.348;2022-10-13T04:01:22;11.30;99.90
16523;DHT22;19889;52.546;13.348;2022-10-13T04:03:50;11.50;99.90
16523;DHT22;19889;52.546;13.348;2022-10-13T04:06:18;11.40;99.90
16523;DHT22;19889;52.546;13.348;2022-10-13T04:08:45;11.80;99.90
16523;DHT22;19889;52.546;13.348;2022-10-13T04:11:13;11.60;99.90
16523;DHT22;19889;52.546;13.348;2022-10-13T04:13:42;11.50;99.90
16523;DHT22;19889;52.546;13.348;2022-10-13T04:16:13;11.00;99.90
16523;DHT22;19889;52.546;13.348;2022-10-13T04:18:42;11.50;99.90
16523;DHT22;19889;52.546;13.348;2022-10-13T04:21:09;11.40;99.90
16523;DHT22;19889;52.546;13.348;2022-10-13T04:23:37;11.50;99.90
16523;DHT22;19889;52.546;13.348;2022-10-13T04:26:04;11.40;99.90
16523;DHT22;19889;52.546;13.348;2022-10-13T04:28:31;11.30;99.90
16523;DHT22;19889;52.546;13.348;2022-10-13T04:31:00;11.40;99.90
16523;DHT22;19889;52.546;13.348;2022-10-13T04:33:27;11.70;99.90
16523;DHT22;19889;52.546;13.348;2022-10-13T04:35:56;11.40;99.90
16523;DHT22;19889;52.546;13.348;2022-10-13T04:38:22;11.00;99.90
16523;DHT22;19889;52.546;13.348;2022-10-13T04:40:49;11.40;99.90
16523;DHT22;19889;52.546;13.348;2022-10-13T04:43:16;11.30;99.90
16523;DHT22;19889;52.546;13.348;2022-10-13T04:45:43;11.40;99.90
16523;DHT22;19889;52.546;13.348;2022-10-13T04:48:10;11.40;99.90
16523;DHT22;19889;52.546;13.348;2022-10-13T04:50:36;11.70;99.90
16523;DHT22;19889;52.546;13.348;2022-10-13T04:53:05;11.60;99.90
16523;DHT22;19889;52.546;13.348;2022-10-13T04:55:34;11.40;99.90
16523;DHT22;19889;52.546;13.348;2022-10-13T04:58:01;11.40;99.90
16523;DHT22;19889;52.546;13.348;2022-10-13T05:00:28;11.30;99.90
16523;DHT22;19889;52.546;13.348;2022-10-13T05:02:54;11.30;99.90
16523;DHT22;19889;52.546;13.348;2022-10-13T05:05:21;11.30;99.90
16523;DHT22;19889;52.546;13.348;2022-10-13T05:07:48;11.30;99.90
16523;DHT22;19889;52.546;13.348;2022-10-13T05:10:16;11.40;99.90
16523;DHT22;19889;52.546;13.348;2022-10-13T05:12:43;11.40;99.90
16523;DHT22;19889;52.546;13.348;2022-10-13T05:15:10;11.20;99.90
16523;DHT22;19889;52.546;13.348;2022-10-13T05:17:37;11.30;99.90
16523;DHT22;19889;52.546;13.348;2022-10-13T05:20:08;11.30;99.90
16523;DHT22;19889;52.546;13.348;2022-10-13T05:22:35;11.30;99.90
16523;DHT22;19889;52.546;13.348;2022-10-13T05:25:02;11.40;99.90
16523;DHT22;19889;52.546;13.348;2022-10-13T05:27:30;11.30;99.90
16523;DHT22;19889;52.546;13.348;2022-10-13T05:29:59;11.40;99.90
16523;DHT22;19889;52.546;13.348;2022-10-13T05:32:26;11.30;99.90
16523;DHT22;19889;52.546;13.348;2022-10-13T05:34:53;11.40;99.90
16523;DHT22;19889;52.546;13.348;2022-10-13T05:37:19;11.40;99.90
16523;DHT22;19889;52.546;13.348;2022-10-13T05:39:47;11.40;99.90
16523;DHT22;19889;52.546;13.348;2022-10-13T05:42:14;11.30;99.90
16523;DHT22;19889;52.546;13.348;2022-10-13T05:44:42;11.40;99.90
16523;DHT22;19889;52.546;13.348;2022-10-13T05:47:09;11.40;99.90
16523;DHT22;19889;52.546;13.348;2022-10-13T05:49:36;11.40;99.90
16523;DHT22;19889;52.546;13.348;2022-10-13T05:52:07;11.40;99.90
16523;DHT22;19889;52.546;13.348;2022-10-13T05:54:39;11.50;99.90
16523;DHT22;19889;52.546;13.348;2022-10-13T05:57:11;11.40;99.90
16523;DHT22;19889;52.546;13.348;2022-10-13T05:59:43;11.40;99.90
16523;DHT22;19889;52.546;13.348;2022-10-13T06:02:14;11.40;99.90
16523;DHT22;19889;52.546;13.348;2022-10-13T06:04:45;11.40;99.90
16523;DHT22;19889;52.546;13.348;2022-10-13T06:07:12;11.30;99.90
16523;DHT22;19889;52.546;13.348;2022-10-13T06:09:40;12.30;99.90
16523;DHT22;19889;52.546;13.348;2022-10-13T06:12:08;11.40;99.90
16523;DHT22;19889;52.546;13.348;2022-10-13T06:14:35;11.50;99.90
16523;DHT22;19889;52.546;13.348;2022-10-13T06:17:06;11.50;99.90
16523;DHT22;19889;52.546;13.348;2022-10-13T06:19:33;11.50;99.90
16523;DHT22;19889;52.546;13.348;2022-10-13T06:22:06;11.50;99.90
16523;DHT22;19889;52.546;13.348;2022-10-13T06:24:33;11.50;99.90
16523;DHT22;19889;52.546;13.348;2022-10-13T06:26:59;11.50;99.90
16523;DHT22;19889;52.546;13.348;2022-10-13T06:29:26;11.70;99.90
16523;DHT22;19889;52.546;13.348;2022-10-13T06:31:53;11.60;99.90
16523;DHT22;19889;52.546;13.348;2022-10-13T06:34:21;11.30;99.90
16523;DHT22;19889;52.546;13.348;2022-10-13T06:36:48;11.70;99.90
16523;DHT22;19889;52.546;13.348;2022-10-13T06:39:15;11.50;99.90
16523;DHT22;19889;52.546;13.348;2022-10-13T06:41:42;11.50;99.90
16523;DHT22;19889;52.546;13.348;2022-10-13T06:44:09;11.50;99.90
16523;DHT22;19889;52.546;13.348;2022-10-13T06:46:36;11.50;99.90
16523;DHT22;19889;52.546;13.348;2022-10-13T06:49:02;11.60;99.90
16523;DHT22;19889;52.546;13.348;2022-10-13T06:51:31;11.50;99.90
16523;DHT22;19889;52.546;13.348;2022-10-13T06:53:58;11.50;99.90
16523;DHT22;19889;52.546;13.348;2022-10-13T06:56:25;11.50;99.90
16523;DHT22;19889;52.546;13.348;2022-10-13T06:58:52;11.50;99.90
16523;DHT22;19889;52.546;13.348;2022-10-13T07:01:18;11.50;99.90
16523;DHT22;19889;52.546;13.348;2022-10-13T07:03:47;11.60;99.90
16523;DHT22;19889;52.546;13.348;2022-10-13T07:06:17;11.60;99.90
16523;DHT22;19889;52.546;13.348;2022-10-13T07:08:45;11.50;99.90
16523;DHT22;19889;52.546;13.348;2022-10-13T07:11:13;11.50;99.90
16523;DHT22;19889;52.546;13.348;2022-10-13T07:13:40;11.50;99.90
16523;DHT22;19889;52.546;13.348;2022-10-13T07:16:08;11.50;99.90
16523;DHT22;19889;52.546;13.348;2022-10-13T07:18:35;11.30;99.90
16523;DHT22;19889;52.546;13.348;2022-10-13T07:21:03;11.80;99.90
16523;DHT22;19889;52.546;13.348;2022-10-13T07:23:31;11.50;99.90
16523;DHT22;19889;52.546;13.348;2022-10-13T07:25:59;11.60;99.90
16523;DHT22;19889;52.546;13.348;2022-10-13T07:28:26;11.60;99.90
16523;DHT22;19889;52.546;13.348;2022-10-13T07:30:53;11.60;99.90
16523;DHT22;19889;52.546;13.348;2022-10-13T07:33:20;11.60;99.90
16523;DHT22;19889;52.546;13.348;2022-10-13T07:35:46;11.60;99.90
16523;DHT22;19889;52.546;13.348;2022-10-13T07:38:13;11.60;99.90
16523;DHT22;19889;52.546;13.348;2022-10-13T07:40:42;11.80;99.90
16523;DHT22;19889;52.546;13.348;2022-10-13T07:43:10;11.60;99.90
16523;DHT22;19889;52.546;13.348;2022-10-13T07:45:37;11.90;99.90
16523;DHT22;19889;52.546;13.348;2022-10-13T07:48:04;11.70;99.90
16523;DHT22;19889;52.546;13.348;2022-10-13T07:50:30;11.70;99.90
16523;DHT22;19889;52.546;13.348;2022-10-13T07:52:57;11.70;99.90
16523;DHT22;19889;52.546;13.348;2022-10-13T07:55:24;11.80;99.90
16523;DHT22;19889;52.546;13.348;2022-10-13T07:57:53;11.80;99.90
16523;DHT22;19889;52.546;13.348;2022-10-13T08:00:21;11.80;99.90
16523;DHT22;19889;52.546;13.348;2022-10-13T08:02:48;12.00;99.90
16523;DHT22;19889;52.546;13.348;2022-10-13T08:05:16;11.80;99.90
16523;DHT22;19889;52.546;13.348;2022-10-13T08:07:42;11.90;99.90
16523;DHT22;19889;52.546;13.348;2022-10-13T08:10:10;12.00;99.90
16523;DHT22;19889;52.546;13.348;2022-10-13T08:12:37;12.10;99.90
16523;DHT22;19889;52.546;13.348;2022-10-13T08:15:05;12.60;99.90
16523;DHT22;19889;52.546;13.348;2022-10-13T08:17:33;12.30;99.90
16523;DHT22;19889;52.546;13.348;2022-10-13T08:20:01;12.30;99.90
16523;DHT22;19889;52.546;13.348;2022-10-13T08:22:27;12.40;99.90
16523;DHT22;19889;52.546;13.348;2022-10-13T08:24:54;12.40;99.90
16523;DHT22;19889;52.546;13.348;2022-10-13T08:27:23;12.40;99.90
16523;DHT22;19889;52.546;13.348;2022-10-13T08:29:50;12.60;99.90
16523;DHT22;19889;52.546;13.348;2022-10-13T08:32:19;12.70;99.90
16523;DHT22;19889;52.546;13.348;2022-10-13T08:34:47;12.60;99.90
16523;DHT22;19889;52.546;13.348;2022-10-13T08:37:15;12.50;99.90
16523;DHT22;19889;52.546;13.348;2022-10-13T08:39:42;12.50;99.90
16523;DHT22;19889;52.546;13.348;2022-10-13T08:42:15;12.50;99.90
16523;DHT22;19889;52.546;13.348;2022-10-13T08:44:45;12.50;99.90
16523;DHT22;19889;52.546;13.348;2022-10-13T08:47:20;12.60;99.90
16523;DHT22;19889;52.546;13.348;2022-10-13T08:49:51;12.70;99.90
16523;DHT22;19889;52.546;13.348;2022-10-13T08:52:22;12.90;99.90
16523;DHT22;19889;52.546;13.348;2022-10-13T08:54:50;12.70;99.90
16523;DHT22;19889;52.546;13.348;2022-10-13T08:57:19;13.00;99.90
16523;DHT22;19889;52.546;13.348;2022-10-13T08:59:46;12.80;99.90
16523;DHT22;19889;52.546;13.348;2022-10-13T09:02:14;13.10;99.90
16523;DHT22;19889;52.546;13.348;2022-10-13T09:04:49;12.90;99.90
16523;DHT22;19889;52.546;13.348;2022-10-13T09:07:20;12.90;99.90
16523;DHT22;19889;52.546;13.348;2022-10-13T09:09:49;13.00;99.90
16523;DHT22;19889;52.546;13.348;2022-10-13T09:12:19;13.00;99.90
16523;DHT22;19889;52.546;13.348;2022-10-13T09:14:57;13.00;99.90
16523;DHT22;19889;52.546;13.348;2022-10-13T09:17:26;13.10;99.90
16523;DHT22;19889;52.546;13.348;2022-10-13T09:19:59;13.30;99.90
16523;DHT22;19889;52.546;13.348;2022-10-13T09:22:28;13.20;99.90
16523;DHT22;19889;52.546;13.348;2022-10-13T09:25:08;13.20;99.90
16523;DHT22;19889;52.546;13.348;2022-10-13T09:27:44;13.20;99.90
16523;DHT22;19889;52.546;13.348;2022-10-13T09:30:28;13.20;99.90
16523;DHT22;19889;52.546;13.348;2022-10-13T09:33:21;13.30;99.90
16523;DHT22;19889;52.546;13.348;2022-10-13T09:36:06;13.30;99.90
16523;DHT22;19889;52.546;13.348;2022-10-13T09:38:36;13.40;99.90
16523;DHT22;19889;52.546;13.348;2022-10-13T09:41:05;13.40;99.90
16523;DHT22;19889;52.546;13.348;2022-10-13T09:43:41;13.40;99.90
16523;DHT22;19889;52.546;13.348;2022-10-13T09:46:15;13.60;99.90
16523;DHT22;19889;52.546;13.348;2022-10-13T09:48:47;13.50;99.90
16523;DHT22;19889;52.546;13.348;2022-10-13T09:51:33;13.50;99.90
16523;DHT22;19889;52.546;13.348;2022-10-13T09:54:25;13.50;99.90
16523;DHT22;19889;52.546;13.348;2022-10-13T09:56:56;13.60;99.90
16523;DHT22;19889;52.546;13.348;2022-10-13T09:59:30;13.60;99.90
16523;DHT22;19889;52.546;13.348;2022-10-13T10:02:00;13.60;99.90
16523;DHT22;19889;52.546;13.348;2022-10-13T10:04:32;13.60;99.90
16523;DHT22;19889;52.546;13.348;2022-10-13T10:07:09;13.80;99.90
16523;DHT22;19889;52.546;13.348;2022-10-13T10:09:40;13.70;99.90
16523;DHT22;19889;52.546;13.348;2022-10-13T10:12:14;13.70;99.90
16523;DHT22;19889;52.546;13.348;2022-10-13T10:14:41;13.70;99.90
16523;DHT22;19889;52.546;13.348;2022-10-13T10:17:15;13.80;99.90
16523;DHT22;19889;52.546;13.348;2022-10-13T10:19:53;13.90;99.90
16523;DHT22;19889;52.546;13.348;2022-10-13T10:22:32;13.80;99.90
16523;DHT22;19889;52.546;13.348;2022-10-13T10:25:07;13.90;99.90
16523;DHT22;19889;52.546;13.348;2022-10-13T10:27:40;14.10;99.90
16523;DHT22;19889;52.546;13.348;2022-10-13T10:30:13;14.00;99.90
16523;DHT22;19889;52.546;13.348;2022-10-13T10:32:45;14.00;99.90
16523;DHT22;19889;52.546;13.348;2022-10-13T10:35:23;14.10;99.90
16523;DHT22;19889;52.546;13.348;2022-10-13T10:38:05;14.10;99.90
16523;DHT22;19889;52.546;13.348;2022-10-13T10:40:39;14.20;99.90
16523;DHT22;19889;52.546;13.348;2022-10-13T10:43:28;14.20;99.90
16523;DHT22;19889;52.546;13.348;2022-10-13T10:45:58;14.20;99.90
16523;DHT22;19889;52.546;13.348;2022-10-13T10:48:33;14.30;99.90
16523;DHT22;19889;52.546;13.348;2022-10-13T10:51:01;14.30;99.90
16523;DHT22;19889;52.546;13.348;2022-10-13T10:53:37;14.30;99.90
16523;DHT22;19889;52.546;13.348;2022-10-13T10:56:11;14.30;99.90
16523;DHT22;19889;52.546;13.348;2022-10-13T10:58:44;14.40;99.90
16523;DHT22;19889;52.546;13.348;2022-10-13T11:01:22;14.40;99.90
16523;DHT22;19889;52.546;13.348;2022-10-13T11:03:57;14.40;99.90
16523;DHT22;19889;52.546;13.348;2022-10-13T11:06:34;14.40;99.90
16523;DHT22;19889;52.546;13.348;2022-10-13T11:09:04;14.50;99.90
16523;DHT22;19889;52.546;13.348;2022-10-13T11:11:39;14.50;99.90
16523;DHT22;19889;52.546;13.348;2022-10-13T11:14:29;14.50;99.90
16523;DHT22;19889;52.546;13.348;2022-10-13T11:17:14;14.60;99.90
16523;DHT22;19889;52.546;13.348;2022-10-13T11:19:42;14.60;99.90
16523;DHT22;19889;52.546;13.348;2022-10-13T11:22:14;14.60;99.90
16523;DHT22;19889;52.546;13.348;2022-10-13T11:24:53;14.60;99.90
16523;DHT22;19889;52.546;13.348;2022-10-13T11:27:26;14.70;99.90
16523;DHT22;19889;52.546;13.348;2022-10-13T11:29:56;14.70;99.90
16523;DHT22;19889;52.546;13.348;2022-10-13T11:32:45;14.70;99.90
16523;DHT22;19889;52.546;13.348;2022-10-13T11:35:23;14.80;99.90
16523;DHT22;19889;52.546;13.348;2022-10-13T11:38:19;14.80;99.90
16523;DHT22;19889;52.546;13.348;2022-10-13T11:41:01;14.80;99.90
16523;DHT22;19889;52.546;13.348;2022-10-13T11:43:40;14.80;99.90
16523;DHT22;19889;52.546;13.348;2022-10-13T11:46:22;14.90;99.90
16523;DHT22;19889;52.546;13.348;2022-10-13T11:49:09;14.90;99.90
16523;DHT22;19889;52.546;13.348;2022-10-13T11:52:00;14.90;99.90
16523;DHT22;19889;52.546;13.348;2022-10-13T11:54:34;15.00;99.90
16523;DHT22;19889;52.546;13.348;2022-10-13T11:57:19;15.00;99.90
16523;DHT22;19889;52.546;13.348;2022-10-13T11:59:48;15.10;99.90
16523;DHT22;19889;52.546;13.348;2022-10-13T12:02:17;15.10;99.90
16523;DHT22;19889;52.546;13.348;2022-10-13T12:04:57;15.10;99.90
16523;DHT22;19889;52.546;13.348;2022-10-13T12:07:25;15.20;99.90
16523;DHT22;19889;52.546;13.348;2022-10-13T12:09:55;15.20;99.90
16523;DHT22;19889;52.546;13.348;2022-10-13T12:12:26;15.20;99.90
16523;DHT22;19889;52.546;13.348;2022-10-13T12:14:54;15.20;99.90
16523;DHT22;19889;52.546;13.348;2022-10-13T12:17:27;15.20;99.90
16523;DHT22;19889;52.546;13.348;2022-10-13T12:19:56;15.20;99.90
16523;DHT22;19889;52.546;13.348;2022-10-13T12:22:24;15.20;99.90
16523;DHT22;19889;52.546;13.348;2022-10-13T12:24:58;15.30;99.90
16523;DHT22;19889;52.546;13.348;2022-10-13T12:27:29;15.20;99.90
16523;DHT22;19889;52.546;13.348;2022-10-13T12:29:58;15.30;99.90
16523;DHT22;19889;52.546;13.348;2022-10-13T12:32:26;15.20;99.90
16523;DHT22;19889;52.546;13.348;2022-10-13T12:34:53;15.30;99.90
16523;DHT22;19889;52.546;13.348;2022-10-13T12:37:26;15.30;99.90
16523;DHT22;19889;52.546;13.348;2022-10-13T12:39:54;15.30;99.90
16523;DHT22;19889;52.546;13.348;2022-10-13T12:42:27;15.30;99.90
16523;DHT22;19889;52.546;13.348;2022-10-13T12:44:55;15.30;99.90
16523;DHT22;19889;52.546;13.348;2022-10-13T12:47:37;15.40;99.90
16523;DHT22;19889;52.546;13.348;2022-10-13T12:50:33;15.30;99.90
16523;DHT22;19889;52.546;13.348;2022-10-13T12:53:14;15.30;99.90
16523;DHT22;19889;52.546;13.348;2022-10-13T12:55:53;15.30;99.90
16523;DHT22;19889;52.546;13.348;2022-10-13T12:58:26;15.30;99.90
16523;DHT22;19889;52.546;13.348;2022-10-13T13:01:08;15.30;99.90
16523;DHT22;19889;52.546;13.348;2022-10-13T13:03:43;15.30;99.90
16523;DHT22;19889;52.546;13.348;2022-10-13T13:06:22;15.30;99.90
16523;DHT22;19889;52.546;13.348;2022-10-13T13:14:48;15.40;99.90
16523;DHT22;19889;52.546;13.348;2022-10-13T13:17:25;15.40;99.90
16523;DHT22;19889;52.546;13.348;2022-10-13T13:19:54;15.40;99.90
16523;DHT22;19889;52.546;13.348;2022-10-13T13:22:22;15.40;99.90
16523;DHT22;19889;52.546;13.348;2022-10-13T13:24:50;15.30;99.90
16523;DHT22;19889;52.546;13.348;2022-10-13T13:27:22;15.40;99.90
16523;DHT22;19889;52.546;13.348;2022-10-13T13:29:50;15.40;99.90
16523;DHT22;19889;52.546;13.348;2022-10-13T13:32:18;15.40;99.90
16523;DHT22;19889;52.546;13.348;2022-10-13T13:34:46;15.40;99.90
16523;DHT22;19889;52.546;13.348;2022-10-13T13:37:21;15.40;99.90
16523;DHT22;19889;52.546;13.348;2022-10-13T13:39:48;15.40;99.90
16523;DHT22;19889;52.546;13.348;2022-10-13T13:42:15;15.40;99.90
16523;DHT22;19889;52.546;13.348;2022-10-13T13:44:42;15.10;99.90
16523;DHT22;19889;52.546;13.348;2022-10-13T13:47:17;15.40;99.90
16523;DHT22;19889;52.546;13.348;2022-10-13T13:49:45;15.40;99.90
16523;DHT22;19889;52.546;13.348;2022-10-13T13:52:11;15.40;99.90
16523;DHT22;19889;52.546;13.348;2022-10-13T13:54:38;15.40;99.90
16523;DHT22;19889;52.546;13.348;2022-10-13T13:57:05;15.50;99.90
16523;DHT22;19889;52.546;13.348;2022-10-13T13:59:32;15.50;99.90
16523;DHT22;19889;52.546;13.348;2022-10-13T14:01:59;15.50;99.90
16523;DHT22;19889;52.546;13.348;2022-10-13T14:04:30;15.60;99.90
16523;DHT22;19889;52.546;13.348;2022-10-13T14:06:57;15.60;99.90
16523;DHT22;19889;52.546;13.348;2022-10-13T14:09:24;15.60;99.90
16523;DHT22;19889;52.546;13.348;2022-10-13T14:11:50;15.70;99.90
16523;DHT22;19889;52.546;13.348;2022-10-13T14:14:17;15.70;99.90
16523;DHT22;19889;52.546;13.348;2022-10-13T14:16:44;15.80;99.90
16523;DHT22;19889;52.546;13.348;2022-10-13T14:19:11;15.70;99.90
16523;DHT22;19889;52.546;13.348;2022-10-13T14:21:39;15.80;99.90
16523;DHT22;19889;52.546;13.348;2022-10-13T14:24:09;16.30;99.90
16523;DHT22;19889;52.546;13.348;2022-10-13T14:26:36;15.90;99.90
16523;DHT22;19889;52.546;13.348;2022-10-13T14:29:03;16.00;99.90
16523;DHT22;19889;52.546;13.348;2022-10-13T14:31:31;16.20;99.90
16523;DHT22;19889;52.546;13.348;2022-10-13T14:33:58;16.10;99.90
16523;DHT22;19889;52.546;13.348;2022-10-13T14:36:26;16.00;99.90
16523;DHT22;19889;52.546;13.348;2022-10-13T14:38:54;16.00;99.90
16523;DHT22;19889;52.546;13.348;2022-10-13T14:41:21;15.90;99.90
16523;DHT22;19889;52.546;13.348;2022-10-13T14:43:51;15.80;99.90
16523;DHT22;19889;52.546;13.348;2022-10-13T14:46:18;15.80;99.90
16523;DHT22;19889;52.546;13.348;2022-10-13T14:48:45;15.90;99.90
16523;DHT22;19889;52.546;13.348;2022-10-13T14:51:12;15.90;99.90
16523;DHT22;19889;52.546;13.348;2022-10-13T14:53:42;15.90;99.90
16523;DHT22;19889;52.546;13.348;2022-10-13T14:56:17;15.90;99.90
16523;DHT22;19889;52.546;13.348;2022-10-13T14:58:49;15.90;99.90
16523;DHT22;19889;52.546;13.348;2022-10-13T15:01:17;15.90;99.90
16523;DHT22;19889;52.546;13.348;2022-10-13T15:03:44;15.90;99.90
16523;DHT22;19889;52.546;13.348;2022-10-13T15:06:13;16.10;99.90
16523;DHT22;19889;52.546;13.348;2022-10-13T15:08:40;16.00;99.90
16523;DHT22;19889;52.546;13.348;2022-10-13T15:11:07;15.90;99.90
16523;DHT22;19889;52.546;13.348;2022-10-13T15:13:36;15.90;99.90
16523;DHT22;19889;52.546;13.348;2022-10-13T15:16:03;15.90;99.90
16523;DHT22;19889;52.546;13.348;2022-10-13T15:18:31;15.90;99.90
16523;DHT22;19889;52.546;13.348;2022-10-13T15:20:58;15.90;99.90
16523;DHT22;19889;52.546;13.348;2022-10-13T15:23:25;15.80;99.90
16523;DHT22;19889;52.546;13.348;2022-10-13T15:25:53;15.90;99.90
16523;DHT22;19889;52.546;13.348;2022-10-13T15:28:21;16.00;99.90
16523;DHT22;19889;52.546;13.348;2022-10-13T15:30:49;15.80;99.90
16523;DHT22;19889;52.546;13.348;2022-10-13T15:33:16;15.80;99.90
16523;DHT22;19889;52.546;13.348;2022-10-13T15:35:46;15.70;99.90
16523;DHT22;19889;52.546;13.348;2022-10-13T15:38:13;15.80;99.90
16523;DHT22;19889;52.546;13.348;2022-10-13T15:40:40;15.80;99.90